Adam Morgan

Scout - Reading
4 Dec 2028
Monday
Process

Personality

Adaptability (15) Ambition (19) Controversy (13) Loyalty (10) Pressure (8) Professionalism (9) Sportsmanship (1) Temperament (3)

Profile

Coaching Style Democratic
License National B
Determination 12
Man Management 7
Motivating 4
Discipline 4
Job Satisfaction
100%
Fatigue
0%
Role Scout
Wage 46.1K p/w
Contract 14.03.2030

Performance

Behaviour Good
Training Effectiveness
35%
Player Development
45%
Injury Prevention
20%
Tactical Implementation
35%

Recent Events

Attended a recruitment meeting 7d ago
Attended a recruitment meeting 14d ago
Attended a recruitment meeting 21d ago
Attended a recruitment meeting 28d ago
Attended a recruitment meeting 35d ago
Attended a recruitment meeting 42d ago
Attended a recruitment meeting 49d ago
Attended a recruitment meeting 56d ago

Currently Monitoring

101
Player Club Status Ability Confidence Watched Last Observed Latest Vote
Ossama Ashley Salford City Lost 114 / 104 76% 1 14.08.2028 Approve
Miguel Figueiredo Benfica Active 126 / 128 40% 5 12.06.2028 -
Jan Bürger Northampton Town Active 127 / 121 40% 4 12.06.2028 -
Jake Evans Crewe Alexandra Active 110 / 126 40% 1 07.06.2028 -
Ryan Kavuma-McQueen Accrington Stanley Active 114 / 134 40% 1 07.06.2028 -
Leo Pecover Swindon Town Active 92 / 107 40% 1 07.06.2028 -
Abubakar Adams Aduana Stars Active 79 / 84 40% 3 31.05.2028 -
Daniel Banjaqui Benfica Active 125 / 126 40% 5 30.05.2028 -
Simone Suppa Virtus Verona Active 83 / 90 40% 3 30.05.2028 -
Jorthy Mokio ADO Den Haag Active 136 / 134 40% 1 30.05.2028 -
Giovanni Leoni Lincoln City Active 146 / 145 40% 2 29.05.2028 -
Bernardo Lima Porto Active 115 / 120 40% 1 29.05.2028 -
Martim Cunha Porto Active 107 / 111 40% 3 28.05.2028 -
Riquelme Thompson-Jones Accrington Stanley Active 115 / 119 40% 3 28.05.2028 -
Christos Mouzakitis Hull City Active 139 / 144 40% 4 27.05.2028 -
Gideon Manaseh Ikorodu City Active 87 / 96 40% 3 27.05.2028 -
Tyler Fletcher Rotherham United Active 117 / 121 40% 1 27.05.2028 -
Andrea Cogoni Cosenza Active 113 / 112 40% 2 26.05.2028 -
Josh Nichols Oldham Athletic Active 124 / 124 40% 4 25.05.2028 -
Eko Solomon Leixões Active 83 / 92 40% 3 21.05.2028 -
Joel Ezra Enyimba Active 104 / 109 40% 3 18.05.2028 -
Andrey Ivlev Nizhniy Novgorod Active 116 / 120 40% 3 18.05.2028 -
Amine Boukamir Charleroi Active 100 / 109 40% 2 17.05.2028 -
Tobías Ramírez River Plate Active 127 / 134 40% 1 15.05.2028 -
Kiani Inge Groningen Active 111 / 117 40% 3 13.05.2028 -
Nicolò Moranduzzo Renate Active 89 / 99 40% 3 12.05.2028 -
Musa Danjuma Umraniyespor Active 94 / 98 40% 2 01.05.2028 -
Celías Ingenthron Platense Active 117 / 124 40% 1 01.05.2028 -
Artem Nosachev Spartak Moscow Active 70 / 82 40% 2 30.04.2028 -
Ronan Kpakio AC Milan Active 120 / 130 40% 2 27.04.2028 -
Olivier Leroux Mouscron Active 104 / 113 40% 3 23.04.2028 -
Bence Szakos Aris Active 87 / 93 40% 1 22.04.2028 -
Hosea Michael Remo Stars Active 89 / 97 40% 2 19.04.2028 -
Nicolas Sport Recife Active 109 / 118 40% 1 06.04.2028 -
Claudio Martey Pianese Active 93 / 94 40% 1 05.04.2028 -
Lebogang Manyama SuperSport United Active 121 / 103 40% 2 29.05.2027 -
Charlie Webster Burton Albion Active 113 / 112 40% 1 29.05.2027 -
Federico Zuccon Foggia Active 120 / 120 40% 1 29.05.2027 -
Idris El Mizouni Leyton Orient Active 121 / 123 40% 1 27.05.2027 -
Max Bird Birmingham Active 130 / 131 40% 4 26.05.2027 -
Joel Bagan Cardiff City Active 115 / 106 40% 1 26.05.2027 -
Darlin Yongwa Norwich City Active 128 / 132 40% 1 26.05.2027 -
Aidan Morris Middlesbrough Active 132 / 127 40% 2 25.05.2027 -
Archie Collins Peterborough United Active 121 / 116 40% 1 25.05.2027 -
Oliver Skipp Leicester City Active 139 / 135 40% 1 25.05.2027 -
Ethan Pye Stockport County Active 124 / 111 40% 2 24.05.2027 -
Jay Matete Milton Keynes Dons Active 112 / 120 40% 1 24.05.2027 -
Lucas Da Cunha Como Active 148 / 141 40% 2 23.05.2027 -
Lewis Bate Stockport County Active 122 / 124 40% 2 22.05.2027 -
Gonçalo Franco Swansea City Active 122 / 119 40% 1 22.05.2027 -
Harvey Vale Queens Park Rangers Active 121 / 119 40% 1 22.05.2027 -
Xavier Simons Bolton Wanderers Active 126 / 120 40% 2 21.05.2027 -
Alfie Gilchrist West Bromwich Albion Active 127 / 122 40% 1 21.05.2027 -
Max Johnston Derby County Active 122 / 123 40% 2 16.05.2027 -
Brian De Keersmaecker Oxford United Active 126 / 122 40% 2 15.05.2027 -
Ahmed Zaki Masr El Makasa Active 75 / 91 40% 1 15.05.2027 -
Adam Randell Bristol City Active 127 / 135 40% 1 13.05.2027 -
Jacques Ekomié Wrexham Active 127 / 124 40% 2 12.05.2027 -
Christoph Klarer Birmingham Active 131 / 126 40% 1 12.05.2027 -
Mpho Khethang FC Diarra Active 82 / 93 40% 1 11.05.2027 -
Kazunari Kita Real Sociedad Active 103 / 103 40% 1 11.05.2027 -
Bosun Lawal Stoke City Active 124 / 135 40% 2 07.05.2027 -
Welington Southampton Active 132 / 127 40% 1 07.05.2027 -
Harrison Burrows Sheffield United Active 128 / 127 40% 1 07.05.2027 -
Afriyie Sulemana WAFA Active 82 / 89 40% 2 06.05.2027 -
Jack Currie Oxford United Active 127 / 130 40% 2 06.05.2027 -
Kamaldeen Atiemo Wa All Stars Active 105 / 107 40% 2 06.05.2027 -
Rivaldo Mkhize Black Aces Active 81 / 85 40% 1 06.05.2027 -
Brooke Norton-Cuffy Hull City Active 143 / 141 40% 4 03.05.2027 -
Shea Charles Southampton Active 135 / 142 40% 2 03.05.2027 -
Leighton Clarkson Blackpool Active 123 / 126 40% 1 03.05.2027 -
Ezra Mayers West Ham United Active 122 / 122 40% 2 02.05.2027 -
Samuele di Benedetto Twente Active 109 / 123 40% 1 02.05.2027 -
Teboho Mokoena Black Aces Active 89 / 88 40% 1 02.05.2027 -
Gonçalo Oliveira Benfica Active 105 / 115 40% 2 28.04.2027 -
Tommaso Cecotti Carpi Active 89 / 95 40% 1 27.04.2027 -
Mustapha Jawad Kano Pillars Active 96 / 95 40% 1 26.04.2027 -
Dennis Cirkin Queens Park Rangers Active 126 / 135 40% 2 24.04.2027 -
Moussa Baradji Blackburn Rovers Active 123 / 123 40% 4 23.04.2027 -
Enrico Delprato Parma Active 143 / 131 40% 1 23.04.2027 -
Lee Buchanan Sheffield Wednesday Active 125 / 118 40% 1 23.04.2027 -
Tiago Freitas Benfica Active 110 / 117 40% 3 22.04.2027 -
Adilson Malanda Middlesbrough Active 133 / 121 40% 1 20.04.2027 -
Jacob Greaves Ipswich Town Active 137 / 137 40% 1 20.04.2027 -
Habib Diarra Sunderland Active 136 / 145 40% 2 19.04.2027 -
Alfie Doughty Millwall Active 129 / 122 40% 2 18.04.2027 -
Chibueze Oputa Rangers International Active 80 / 97 40% 1 16.04.2027 -
Nicolas Madsen Queens Park Rangers Active 125 / 122 40% 3 15.04.2027 -
Olalekan Adeleke Remo Stars Active 88 / 86 40% 1 12.04.2027 -
Jonathan Varane Queens Park Rangers Active 124 / 120 40% 1 04.04.2027 -
David Ozoh Derby County Active 117 / 131 40% 1 04.04.2027 -
Alessandro Zoboletti Sambenedettese Active 88 / 100 40% 1 03.04.2027 -
Jayden Bogle Leeds United Active 144 / 142 40% 1 28.03.2027 -
Caspar Jander Southampton Active 130 / 131 40% 2 26.03.2027 -
Godwin Oham Warri Wolves Active 88 / 85 40% 1 25.03.2027 -
Pelle Mattsson Norwich City Active 118 / 126 40% 1 24.03.2027 -
Terry Devlin Portsmouth Active 121 / 113 40% 1 24.03.2027 -
Japhet Tanganga Sheffield United Active 127 / 138 40% 3 23.03.2027 -
Florentino Luís Ipswich Town Active 137 / 132 40% 1 23.03.2027 -
Cemran Dansin Orlando Pirates Active 102 / 121 40% 1 19.03.2027 -
Cheick Doucouré Crystal Palace Active 137 / 144 40% 1 17.03.2027 -